Skip Navigation LinksHome page > Weather > Current weather Skip Navigation Links

Current Weather

Boire Field, Nashua, N.H.

For information only: do not use for flight planning or navigation.
Latest weather
Observation time Sunday, August 25, 2019 12:56 AM EDT
Local time Sunday, August 25, 2019 1:10 AM EDT
Flight conditions Visual Meteorological Conditions
Winds
Wind direction West-Northwest (300°)
Wind speed 3 mph
Visibility 10 mi.
Sky condition
Ceiling unlimited
Cloud layer few clouds 6,000 ft.
Temperature 57°F
Dewpoint 57°F
Altimeter 30.32 in.Hg
Derived measurements
Relative humidity 100%
Density altitude -165 ft.
Sea-level pressure 30.33 in.Hg
Climate data
Temperature minimum, last 24 hours 50°F
Temperature maximum, last 24 hours 75°F
Remarks
Fully automated report.
Automated weather observing station with precipitation discriminator.
METAR KASH 250456Z AUTO 30003KT 10SM FEW060 14/14 A3032 RMK AO2 SLP272 T01390139 402390100

Settings

Location code

InnerDrive.Weather 4.0.6770.0 Release CLR 4.0.30319.42000
Copyright ©2018 Inner Drive Technology. All rights reserved. Portions Copyright ©1986-2018 David Braverman.

Find weather

Site navigation


Skip Navigation Links

Place info

Page info

PayPal - The safer, easier way to pay online!

Return home.

Copyright ©2019 Inner Drive Technology. Purveyors of fine, hand-crafted computer software. Page printed 2019-08-25T05:10:57 UTC.